Time;durP1;ratioP1;P1;durP2;ratioP2;P2;SDS_P1;SDS_P2;PMS_P1;PMS_P2;Temp;Humidity;BMP_temperature;BMP_pressure;BME280_temperature;BME280_humidity;BME280_pressure;Samples;Min_cycle;Max_cycle;Signal;HPM_P1;HPM_P2
2023/06/19 00:00:13;;;;;;;5.50;4.85;;;;;;;24.26;47.30;98943.84;340210;28;13254;-60
2023/06/19 00:00:26;;;;;;;5.80;5.15;;;;;;;24.26;47.41;98951.00;342748;28;5426;-60
2023/06/19 00:00:39;;;;;;;6.53;5.20;;;;;;;24.25;47.12;98947.53;341006;28;17873;-59
2023/06/19 00:00:51;;;;;;;6.05;4.82;;;;;;;24.23;47.17;98946.84;340705;28;11877;-61
2023/06/19 00:01:04;;;;;;;5.32;4.82;;;;;;;24.24;47.11;98942.34;343190;28;4533;-61
2023/06/19 00:01:16;;;;;;;5.10;4.60;;;;;;;24.24;46.78;98945.84;343136;28;5392;-60
2023/06/19 00:01:28;;;;;;;5.63;4.80;;;;;;;24.22;46.71;98942.50;340717;28;18075;-60
2023/06/19 00:01:40;;;;;;;5.63;4.93;;;;;;;24.22;46.91;98945.16;342179;28;5200;-60
2023/06/19 00:01:52;;;;;;;6.32;5.22;;;;;;;24.21;46.95;98942.69;339001;28;17932;-60
2023/06/19 00:02:04;;;;;;;6.00;5.35;;;;;;;24.20;47.02;98944.47;342115;28;5248;-60
2023/06/19 00:02:16;;;;;;;5.65;5.00;;;;;;;24.20;47.05;98947.13;339614;28;4956;-61
2023/06/19 00:02:28;;;;;;;6.28;5.03;;;;;;;24.21;47.00;98951.47;341968;28;5577;-60
2023/06/19 00:02:42;;;;;;;6.57;5.07;;;;;;;24.19;46.97;98948.16;342163;28;4644;-60
2023/06/19 00:02:54;;;;;;;5.80;4.97;;;;;;;24.19;47.00;98942.81;339880;28;18207;-60
2023/06/19 00:03:07;;;;;;;5.65;4.97;;;;;;;24.19;46.93;98945.47;339877;28;11901;-61
2023/06/19 00:03:19;;;;;;;5.80;4.93;;;;;;;24.18;47.06;98938.50;342524;28;4580;-60
2023/06/19 00:03:31;;;;;;;5.60;4.90;;;;;;;24.18;46.92;98938.50;339193;28;12544;-61
2023/06/19 00:03:43;;;;;;;5.82;5.00;;;;;;;24.17;47.08;98947.47;342798;28;4608;-60
2023/06/19 00:03:55;;;;;;;6.25;5.07;;;;;;;24.19;46.89;98945.47;342935;28;4681;-60
2023/06/19 00:04:07;;;;;;;6.30;5.28;;;;;;;24.18;47.04;98946.47;340798;28;18172;-60
2023/06/19 00:04:19;;;;;;;6.15;5.20;;;;;;;24.18;47.37;98945.63;343275;28;4633;-61
2023/06/19 00:04:32;;;;;;;5.65;5.05;;;;;;;24.17;47.01;98939.50;340575;28;18196;-61
2023/06/19 00:04:47;;;;;;;5.72;5.00;;;;;;;24.17;47.25;98944.81;341250;28;16864;-61
2023/06/19 00:04:59;;;;;;;5.50;5.00;;;;;;;24.16;47.12;98943.13;344563;28;5510;-60
2023/06/19 00:05:12;;;;;;;6.03;5.20;;;;;;;24.15;47.31;98933.50;344586;28;5379;-61
2023/06/19 00:05:25;;;;;;;6.47;5.13;;;;;;;24.16;47.06;98937.81;339701;28;18096;-61
2023/06/19 00:05:37;;;;;;;5.93;4.97;;;;;;;24.16;47.34;98937.00;340783;28;19253;-61
2023/06/19 00:05:49;;;;;;;6.50;4.93;;;;;;;24.15;47.24;98941.47;342467;28;5501;-60
2023/06/19 00:06:01;;;;;;;6.30;4.90;;;;;;;24.17;47.15;98942.16;341825;28;5249;-60
2023/06/19 00:06:13;;;;;;;6.10;4.80;;;;;;;24.15;47.09;98952.09;340503;28;18069;-61
2023/06/19 00:06:25;;;;;;;5.90;4.80;;;;;;;24.15;47.35;98941.47;342826;28;4640;-60
2023/06/19 00:06:37;;;;;;;6.25;4.90;;;;;;;24.13;47.27;98946.09;340330;28;18048;-61
2023/06/19 00:06:49;;;;;;;7.70;5.38;;;;;;;24.14;47.32;98939.78;343237;28;4657;-60
2023/06/19 00:07:01;;;;;;;8.25;5.32;;;;;;;24.15;47.41;98949.44;340356;28;5570;-61
2023/06/19 00:07:13;;;;;;;8.38;5.30;;;;;;;24.13;47.51;98943.44;343221;28;5194;-61
2023/06/19 00:07:25;;;;;;;5.90;5.10;;;;;;;24.12;47.40;98941.75;342977;28;5329;-60
2023/06/19 00:07:37;;;;;;;6.20;5.22;;;;;;;24.11;47.25;98943.59;342053;28;10020;-60
2023/06/19 00:07:49;;;;;;;5.82;5.00;;;;;;;24.10;47.32;98941.91;344406;28;4910;-61
2023/06/19 00:08:03;;;;;;;5.78;5.05;;;;;;;24.10;47.31;98939.25;344262;28;4869;-60
2023/06/19 00:08:15;;;;;;;6.15;4.97;;;;;;;24.09;47.10;98942.09;341631;28;18770;-60
2023/06/19 00:08:27;;;;;;;6.88;4.97;;;;;;;24.08;47.18;98946.53;341236;28;11261;-60
2023/06/19 00:08:41;;;;;;;7.90;5.10;;;;;;;24.07;46.76;98944.91;343249;28;4696;-60
2023/06/19 00:08:53;;;;;;;7.32;5.18;;;;;;;24.08;46.75;98948.38;338847;28;18691;-61
2023/06/19 00:09:07;;;;;;;6.90;5.00;;;;;;;24.07;46.86;98944.06;342149;28;5485;-60
2023/06/19 00:09:19;;;;;;;5.50;4.90;;;;;;;24.06;46.56;98948.53;339933;28;17636;-61
2023/06/19 00:09:32;;;;;;;5.55;5.00;;;;;;;24.05;46.77;98949.53;343922;28;4636;-60
2023/06/19 00:09:44;;;;;;;5.53;5.00;;;;;;;24.05;46.69;98946.03;341479;28;18218;-60
2023/06/19 00:09:56;;;;;;;5.60;4.97;;;;;;;24.04;46.71;98945.19;341644;28;12900;-61
2023/06/19 00:10:08;;;;;;;6.05;5.20;;;;;;;24.04;46.71;98944.34;344327;28;4653;-60
2023/06/19 00:10:20;;;;;;;6.10;5.28;;;;;;;24.02;46.49;98947.16;344279;28;4508;-60
2023/06/19 00:10:33;;;;;;;5.80;5.10;;;;;;;24.01;46.58;98945.50;340469;28;17693;-60
2023/06/19 00:10:45;;;;;;;5.53;4.85;;;;;;;24.01;46.69;98952.66;343940;28;4638;-60
2023/06/19 00:10:57;;;;;;;5.55;4.82;;;;;;;24.01;46.71;98947.34;341793;28;18416;-61
2023/06/19 00:11:09;;;;;;;5.65;5.07;;;;;;;24.00;46.58;98943.00;343493;28;4972;-60
2023/06/19 00:11:21;;;;;;;6.13;5.25;;;;;;;24.00;46.87;98943.00;343280;28;4483;-60
2023/06/19 00:11:33;;;;;;;6.28;5.18;;;;;;;23.99;46.75;98942.16;340902;28;19247;-61
2023/06/19 00:11:45;;;;;;;6.20;5.00;;;;;;;23.98;46.73;98947.63;342687;28;5378;-61
2023/06/19 00:11:58;;;;;;;5.55;4.95;;;;;;;23.98;46.61;98942.31;340328;28;18262;-61
2023/06/19 00:12:11;;;;;;;5.60;5.00;;;;;;;23.97;46.78;98949.47;343866;28;4840;-60
2023/06/19 00:12:23;;;;;;;6.50;5.05;;;;;;;23.97;46.88;98943.31;342673;28;18724;-60
2023/06/19 00:12:35;;;;;;;6.55;5.10;;;;;;;23.97;46.86;98943.31;345869;28;4586;-60
2023/06/19 00:12:47;;;;;;;5.75;5.10;;;;;;;23.96;46.79;98941.63;340697;28;18237;-58
2023/06/19 00:12:59;;;;;;;5.95;5.03;;;;;;;23.95;46.79;98945.28;341733;28;5459;-60
2023/06/19 00:13:11;;;;;;;6.25;5.10;;;;;;;23.96;46.97;98946.94;340281;28;11752;-58
2023/06/19 00:13:23;;;;;;;6.53;5.35;;;;;;;23.96;47.04;98944.28;342564;28;5426;-61
2023/06/19 00:13:35;;;;;;;5.97;5.18;;;;;;;23.95;46.90;98945.28;344112;28;4513;-61
2023/06/19 00:13:47;;;;;;;5.43;4.88;;;;;;;23.95;46.82;98945.28;340901;28;18266;-59
2023/06/19 00:14:00;;;;;;;5.35;4.80;;;;;;;23.92;46.88;98949.94;342520;28;4566;-60
2023/06/19 00:14:12;;;;;;;6.28;5.15;;;;;;;23.92;46.94;98952.56;340015;28;18160;-59
2023/06/19 00:14:25;;;;;;;6.43;5.30;;;;;;;23.92;46.94;98947.28;342849;28;4705;-61
2023/06/19 00:14:37;;;;;;;6.25;5.30;;;;;;;23.92;47.00;98941.09;340129;28;16167;-62
2023/06/19 00:14:49;;;;;;;6.63;5.50;;;;;;;23.92;46.88;98946.41;343123;28;5085;-60
2023/06/19 00:15:01;;;;;;;6.78;5.50;;;;;;;23.91;47.02;98950.91;344266;28;4518;-59
2023/06/19 00:15:13;;;;;;;7.32;5.38;;;;;;;23.90;46.85;98953.69;341390;28;19131;-61
2023/06/19 00:15:25;;;;;;;6.78;4.85;;;;;;;23.90;47.14;98949.25;344374;28;4572;-59
2023/06/19 00:15:37;;;;;;;6.63;5.00;;;;;;;23.89;47.04;98942.25;340411;28;16204;-59
2023/06/19 00:15:49;;;;;;;7.22;5.25;;;;;;;23.90;47.20;98943.94;333999;28;5475;-61
2023/06/19 00:16:01;;;;;;;7.40;5.38;;;;;;;23.89;46.89;98944.91;344685;28;4520;-58
2023/06/19 00:16:13;;;;;;;6.57;5.20;;;;;;;23.86;47.29;98947.03;341974;28;19138;-58
2023/06/19 00:16:25;;;;;;;6.28;5.32;;;;;;;23.84;47.32;98949.00;341579;28;4919;-60
2023/06/19 00:16:37;;;;;;;6.72;5.40;;;;;;;23.83;47.50;98945.53;338962;28;18204;-61
2023/06/19 00:16:50;;;;;;;5.88;5.03;;;;;;;23.83;47.51;98950.81;344118;28;5396;-58
2023/06/19 00:17:02;;;;;;;5.35;4.85;;;;;;;23.82;47.70;98949.16;341733;28;18763;-60
2023/06/19 00:17:17;;;;;;;5.43;4.93;;;;;;;23.83;47.53;98952.66;343923;28;5292;-59
2023/06/19 00:17:29;;;;;;;5.97;5.20;;;;;;;23.81;47.70;98950.16;341486;28;18017;-59
2023/06/19 00:17:41;;;;;;;6.65;5.38;;;;;;;23.82;47.64;98951.78;341719;28;12203;-61
2023/06/19 00:17:53;;;;;;;6.32;5.20;;;;;;;23.81;47.65;98955.44;344291;28;4613;-61
2023/06/19 00:18:06;;;;;;;5.82;5.10;;;;;;;23.78;47.62;98950.44;343908;28;5409;-61
2023/06/19 00:18:19;;;;;;;6.55;5.45;;;;;;;23.77;47.84;98948.78;339883;28;18504;-62
2023/06/19 00:18:39;;;;;;;7.82;5.68;;;;;;;23.69;47.95;98952.16;340499;28;12278;-62
2023/06/19 00:18:55;;;;;;;7.07;5.43;;;;;;;23.64;47.85;98953.59;343744;28;17611;-60
2023/06/19 00:19:10;;;;;;;6.15;5.30;;;;;;;23.61;47.92;98948.59;340919;28;17982;-62
2023/06/19 00:19:22;;;;;;;6.18;5.10;;;;;;;23.55;48.06;98949.19;340291;28;18300;-60
2023/06/19 00:19:37;;;;;;;5.95;5.20;;;;;;;23.52;48.04;98950.31;342569;28;4915;-62
2023/06/19 00:19:49;;;;;;;6.32;5.47;;;;;;;23.50;48.01;98949.63;340364;28;18678;-62
2023/06/19 00:20:01;;;;;;;6.75;5.68;;;;;;;23.48;48.37;98943.63;343090;28;5103;-61
2023/06/19 00:20:13;;;;;;;7.22;5.80;;;;;;;23.45;48.85;98949.25;341776;28;18520;-61
2023/06/19 00:20:25;;;;;;;6.60;5.70;;;;;;;23.42;49.09;98950.41;343763;28;4659;-62
2023/06/19 00:20:39;;;;;;;7.13;5.53;;;;;;;23.43;48.75;98946.75;339807;28;18167;-61
2023/06/19 00:20:52;;;;;;;7.22;5.30;;;;;;;23.44;49.04;98951.09;342716;28;4657;-59
2023/06/19 00:21:05;;;;;;;6.22;5.05;;;;;;;23.46;49.05;98946.47;340327;28;18138;-61
2023/06/19 00:21:17;;;;;;;5.90;4.93;;;;;;;23.46;49.10;98946.47;341891;28;18012;-61
2023/06/19 00:21:30;;;;;;;6.43;4.90;;;;;;;23.48;49.11;98949.81;341874;28;5215;-62
2023/06/19 00:21:42;;;;;;;6.43;4.90;;;;;;;23.49;48.95;98956.75;340008;28;5267;-61
2023/06/19 00:21:57;;;;;;;6.40;4.90;;;;;;;23.51;49.13;98949.47;341919;28;4573;-61
2023/06/19 00:22:09;;;;;;;6.70;5.15;;;;;;;23.50;49.10;98953.13;340843;28;17936;-62
2023/06/19 00:22:21;;;;;;;6.25;5.25;;;;;;;23.49;49.38;98950.63;344377;28;4592;-61
2023/06/19 00:22:33;;;;;;;6.07;5.35;;;;;;;23.48;49.27;98952.44;340956;28;18988;-61
2023/06/19 00:22:51;;;;;;;6.00;5.40;;;;;;;23.49;49.44;98948.81;339645;28;18256;-61
2023/06/19 00:23:03;;;;;;;5.60;5.00;;;;;;;23.50;49.34;98947.84;340163;28;17735;-62
2023/06/19 00:23:16;;;;;;;5.88;4.90;;;;;;;23.50;49.36;98953.13;344285;28;5049;-59
2023/06/19 00:23:29;;;;;;;6.55;5.35;;;;;;;23.51;48.83;98948.66;340831;28;17889;-62
2023/06/19 00:23:41;;;;;;;6.30;5.25;;;;;;;23.50;49.16;98942.53;343735;28;5541;-61
2023/06/19 00:23:56;;;;;;;5.75;5.13;;;;;;;23.52;48.96;98950.31;339230;28;17810;-61
2023/06/19 00:24:09;;;;;;;5.80;5.13;;;;;;;23.50;48.90;98953.13;339317;28;17854;-61
2023/06/19 00:24:21;;;;;;;6.00;5.30;;;;;;;23.52;48.57;98956.47;340634;28;5291;-60
2023/06/19 00:24:33;;;;;;;5.60;4.88;;;;;;;23.52;49.07;98951.16;342514;28;4655;-60
2023/06/19 00:24:46;;;;;;;5.63;4.80;;;;;;;23.54;49.16;98945.69;343879;28;5387;-61
2023/06/19 00:24:58;;;;;;;5.65;4.82;;;;;;;23.54;48.78;98953.66;339275;28;19177;-60
2023/06/19 00:25:10;;;;;;;5.72;4.97;;;;;;;23.56;48.79;98953.50;343111;28;4731;-58
2023/06/19 00:25:22;;;;;;;5.43;4.88;;;;;;;23.57;48.96;98952.53;340853;28;18292;-61
2023/06/19 00:25:34;;;;;;;5.90;4.97;;;;;;;23.59;49.04;98947.91;342692;28;4582;-61
2023/06/19 00:25:46;;;;;;;5.75;4.97;;;;;;;23.59;48.89;98950.56;343835;28;4759;-61
2023/06/19 00:26:00;;;;;;;5.50;4.93;;;;;;;23.61;48.98;98953.91;341957;28;18127;-61
2023/06/19 00:26:14;;;;;;;5.90;5.10;;;;;;;23.62;48.67;98950.25;341590;28;18742;-62
2023/06/19 00:26:26;;;;;;;6.78;5.15;;;;;;;23.62;48.88;98951.06;343438;28;4728;-61
2023/06/19 00:26:38;;;;;;;8.05;5.30;;;;;;;23.64;48.78;98950.94;339678;28;17949;-61
2023/06/19 00:26:50;;;;;;;7.90;5.38;;;;;;;23.63;48.49;98947.44;342648;28;4981;-61
2023/06/19 00:27:02;;;;;;;6.97;5.57;;;;;;;23.61;48.37;98948.59;341235;28;17844;-60
2023/06/19 00:27:14;;;;;;;6.45;5.55;;;;;;;23.62;48.36;98955.56;343895;28;4925;-61
2023/06/19 00:27:26;;;;;;;5.95;5.28;;;;;;;23.61;48.45;98949.41;341557;28;5460;-60
2023/06/19 00:27:38;;;;;;;6.53;5.00;;;;;;;23.63;48.46;98946.63;341119;28;15454;-61
2023/06/19 00:27:50;;;;;;;6.75;5.05;;;;;;;23.62;48.77;98948.41;343146;28;4643;-59
2023/06/19 00:28:03;;;;;;;5.75;5.15;;;;;;;23.63;48.60;98952.75;339997;28;11575;-61
2023/06/19 00:28:19;;;;;;;6.13;5.30;;;;;;;23.63;48.45;98949.28;342887;28;4643;-61
2023/06/19 00:28:31;;;;;;;5.85;5.15;;;;;;;23.63;48.57;98951.94;341632;28;18035;-62
2023/06/19 00:28:45;;;;;;;5.43;4.90;;;;;;;23.64;48.66;98948.28;341059;28;18714;-61
2023/06/19 00:28:57;;;;;;;5.55;4.75;;;;;;;23.64;48.44;98948.28;338894;28;11771;-62
2023/06/19 00:29:09;;;;;;;6.00;4.93;;;;;;;23.63;48.38;98951.94;341958;28;4657;-62
2023/06/19 00:29:21;;;;;;;6.88;5.30;;;;;;;23.62;48.59;98952.91;343388;28;4490;-62
2023/06/19 00:29:33;;;;;;;7.20;5.55;;;;;;;23.61;48.30;98952.06;339566;28;18214;-61
2023/06/19 00:29:45;;;;;;;6.28;5.55;;;;;;;23.61;48.54;98948.59;342828;28;4561;-62
2023/06/19 00:30:01;;;;;;;5.95;5.32;;;;;;;23.59;48.88;98954.03;339238;28;12002;-61
2023/06/19 00:30:15;;;;;;;6.88;5.35;;;;;;;23.58;49.18;98949.72;338977;28;18933;-61
2023/06/19 00:30:32;;;;;;;7.90;5.65;;;;;;;23.59;49.02;98955.88;340430;28;15069;-61
2023/06/19 00:30:44;;;;;;;7.30;5.57;;;;;;;23.59;49.06;98950.56;341642;28;17951;-63
2023/06/19 00:30:56;;;;;;;6.22;5.30;;;;;;;23.60;49.04;98949.56;342436;28;5185;-61
2023/06/19 00:31:08;;;;;;;6.00;5.30;;;;;;;23.55;49.02;98949.19;340193;28;18105;-61
2023/06/19 00:31:20;;;;;;;6.13;5.53;;;;;;;23.57;49.37;98947.22;342668;28;4605;-62
2023/06/19 00:31:32;;;;;;;6.22;5.50;;;;;;;23.56;49.00;98950.84;340720;28;4708;-60
2023/06/19 00:31:44;;;;;;;6.05;5.30;;;;;;;23.52;49.36;98948.53;343036;28;5688;-62
2023/06/19 00:31:56;;;;;;;6.95;5.80;;;;;;;23.50;49.61;98950.47;343299;28;8824;-62
2023/06/19 00:32:08;;;;;;;7.07;5.82;;;;;;;23.49;49.60;98950.63;340319;28;18298;-62
2023/06/19 00:32:20;;;;;;;6.53;5.65;;;;;;;23.48;49.80;98951.59;342709;28;5473;-62
2023/06/19 00:32:40;;;;;;;6.05;5.30;;;;;;;23.47;49.92;98953.41;339414;28;18371;-62
2023/06/19 00:32:53;;;;;;;6.65;5.03;;;;;;;23.50;49.69;98952.28;338919;28;17409;-62
2023/06/19 00:33:05;;;;;;;6.47;4.88;;;;;;;23.51;49.57;98949.47;341833;28;4652;-62
2023/06/19 00:33:17;;;;;;;5.30;4.78;;;;;;;23.51;49.86;98946.84;340344;28;17168;-63
2023/06/19 00:33:29;;;;;;;5.78;4.90;;;;;;;23.49;49.97;98948.81;343754;28;4526;-62
2023/06/19 00:33:41;;;;;;;6.03;5.03;;;;;;;23.44;49.85;98953.75;342344;28;4539;-64
2023/06/19 00:33:53;;;;;;;6.25;5.40;;;;;;;23.39;50.13;98948.03;338870;28;18112;-63
2023/06/19 00:34:05;;;;;;;6.72;5.60;;;;;;;23.31;50.09;98954.06;341606;28;4544;-63
2023/06/19 00:34:17;;;;;;;6.00;5.40;;;;;;;23.29;50.32;98945.44;340213;28;18087;-62
2023/06/19 00:34:33;;;;;;;6.03;5.20;;;;;;;23.32;50.23;98945.16;342158;28;5286;-63
2023/06/19 00:34:45;;;;;;;6.07;5.32;;;;;;;23.31;50.18;98947.94;339683;28;18003;-63
2023/06/19 00:34:57;;;;;;;5.93;5.32;;;;;;;23.32;50.03;98949.59;338050;28;11912;-63
2023/06/19 00:35:09;;;;;;;6.10;5.47;;;;;;;23.28;50.27;98951.75;342503;28;5506;-60
2023/06/19 00:35:22;;;;;;;6.03;5.43;;;;;;;23.19;50.46;98949.13;342766;28;5501;-63
2023/06/19 00:35:34;;;;;;;5.88;5.38;;;;;;;23.11;50.52;98952.50;339202;28;19046;-63
2023/06/19 00:35:46;;;;;;;6.13;5.53;;;;;;;23.12;50.25;98944.44;342052;28;5012;-63
2023/06/19 00:35:58;;;;;;;6.35;5.63;;;;;;;23.11;50.61;98948.03;339194;28;18259;-63
2023/06/19 00:36:10;;;;;;;7.70;5.53;;;;;;;23.11;50.62;98950.69;342535;28;5669;-63
2023/06/19 00:36:25;;;;;;;8.00;5.43;;;;;;;23.09;50.28;98947.34;340293;28;19317;-62
2023/06/19 00:36:40;;;;;;;7.38;5.35;;;;;;;23.13;50.73;98956.69;339421;28;17802;-63
2023/06/19 00:36:56;;;;;;;6.00;5.13;;;;;;;23.15;50.91;98947.75;341631;28;15896;-62
2023/06/19 00:37:08;;;;;;;6.82;5.35;;;;;;;23.15;50.67;98953.88;341777;28;17895;-63
2023/06/19 00:37:20;;;;;;;7.05;5.35;;;;;;;23.16;50.49;98949.41;344660;28;4636;-62
2023/06/19 00:37:32;;;;;;;6.25;5.30;;;;;;;23.17;50.57;98953.75;339760;28;15135;-63
2023/06/19 00:37:44;;;;;;;5.93;5.22;;;;;;;23.17;50.21;98953.75;343722;28;5175;-63
2023/06/19 00:38:00;;;;;;;5.93;5.30;;;;;;;23.17;50.21;98945.78;343233;28;4855;-63
2023/06/19 00:38:12;;;;;;;6.50;5.28;;;;;;;23.16;50.95;98949.41;340426;28;16983;-60
2023/06/19 00:38:24;;;;;;;6.88;5.22;;;;;;;23.15;50.42;98961.84;343164;28;4526;-61
2023/06/19 00:38:37;;;;;;;6.72;5.28;;;;;;;23.15;50.05;98956.53;342152;28;5181;-61
2023/06/19 00:38:49;;;;;;;6.70;5.55;;;;;;;23.15;50.54;98953.88;341190;28;18697;-61
2023/06/19 00:39:02;;;;;;;7.97;5.65;;;;;;;23.15;50.93;98953.06;342866;28;5412;-61
2023/06/19 00:39:14;;;;;;;8.75;5.70;;;;;;;23.16;50.57;98958.22;340442;28;18214;-61
2023/06/19 00:39:27;;;;;;;8.65;5.82;;;;;;;23.17;50.54;98951.09;343941;28;4711;-62
2023/06/19 00:39:40;;;;;;;8.85;5.80;;;;;;;23.19;50.36;98955.25;339160;28;17706;-61
2023/06/19 00:39:55;;;;;;;6.35;5.28;;;;;;;23.22;50.47;98956.78;338888;28;17750;-61
2023/06/19 00:40:14;;;;;;;5.60;5.00;;;;;;;23.22;50.38;98954.97;338718;28;16581;-61
2023/06/19 00:40:34;;;;;;;5.90;5.18;;;;;;;23.21;50.00;98960.44;338495;28;17898;-61
2023/06/19 00:40:46;;;;;;;6.00;5.20;;;;;;;23.22;50.26;98962.06;341031;28;17684;-61
2023/06/19 00:40:58;;;;;;;6.45;5.40;;;;;;;23.23;50.03;98955.81;338978;28;18129;-60
2023/06/19 00:41:10;;;;;;;6.53;5.35;;;;;;;23.25;49.62;98953.84;342007;28;5131;-61
2023/06/19 00:41:22;;;;;;;7.43;5.55;;;;;;;23.26;49.73;98960.78;339799;28;4928;-61
2023/06/19 00:41:35;;;;;;;7.22;5.40;;;;;;;23.25;50.00;98965.28;342369;28;4635;-62
2023/06/19 00:41:48;;;;;;;6.22;5.40;;;;;;;23.24;50.61;98957.47;340576;28;11330;-61
2023/06/19 00:42:00;;;;;;;6.13;5.53;;;;;;;23.24;50.32;98963.63;341889;28;5323;-62
2023/06/19 00:42:12;;;;;;;6.00;5.40;;;;;;;23.25;50.29;98959.16;342977;28;4648;-62
2023/06/19 00:42:23;;;;;;;5.88;5.13;;;;;;;23.27;50.26;98967.78;340156;28;18236;-62
2023/06/19 00:42:35;;;;;;;5.57;4.97;;;;;;;23.26;49.96;98964.31;342385;28;5591;-62
2023/06/19 00:42:48;;;;;;;5.57;5.00;;;;;;;23.28;50.08;98961.47;340821;28;18052;-61
2023/06/19 00:43:00;;;;;;;5.68;5.10;;;;;;;23.27;50.09;98960.66;341919;28;4808;-62
2023/06/19 00:43:13;;;;;;;6.45;5.20;;;;;;;23.29;49.74;98968.47;341724;28;5460;-60
2023/06/19 00:43:25;;;;;;;7.03;5.38;;;;;;;23.27;49.58;98952.69;344039;28;5495;-60
2023/06/19 00:43:37;;;;;;;7.25;5.50;;;;;;;23.27;49.50;98957.19;343153;28;5142;-61
2023/06/19 00:43:49;;;;;;;6.00;5.40;;;;;;;23.27;49.57;98962.47;340018;28;16929;-62
2023/06/19 00:44:01;;;;;;;6.68;5.50;;;;;;;23.24;50.30;98962.75;343168;28;4774;-61
2023/06/19 00:44:13;;;;;;;7.18;5.68;;;;;;;23.23;49.96;98966.41;341097;28;5713;-60
2023/06/19 00:44:25;;;;;;;6.97;5.75;;;;;;;23.22;49.83;98965.59;343160;28;4466;-60
2023/06/19 00:44:37;;;;;;;7.00;5.60;;;;;;;23.24;49.73;98968.94;341435;28;5406;-61
2023/06/19 00:44:49;;;;;;;7.30;5.53;;;;;;;23.22;49.70;98960.28;342143;28;5135;-61
2023/06/19 00:45:01;;;;;;;6.88;5.55;;;;;;;23.22;49.74;98965.59;342783;28;5168;-61
2023/06/19 00:45:13;;;;;;;7.03;5.53;;;;;;;23.22;50.61;98964.72;338622;28;18464;-60
2023/06/19 00:45:26;;;;;;;6.10;5.30;;;;;;;23.22;50.00;98970.88;342170;28;4824;-61
2023/06/19 00:45:38;;;;;;;6.25;5.18;;;;;;;23.23;49.79;98971.72;340286;28;19283;-61
2023/06/19 00:45:50;;;;;;;6.85;5.20;;;;;;;23.23;49.58;98969.91;342432;28;4643;-61
2023/06/19 00:46:03;;;;;;;7.95;5.30;;;;;;;23.24;49.78;98978.69;339694;28;16124;-61
2023/06/19 00:46:15;;;;;;;7.60;5.30;;;;;;;23.25;49.72;98983.00;342827;28;5605;-61
2023/06/19 00:46:28;;;;;;;7.55;5.30;;;;;;;23.23;50.06;98983.16;338080;28;16604;-61
2023/06/19 00:46:41;;;;;;;8.02;5.40;;;;;;;23.17;49.61;98986.38;341441;28;4630;-61
2023/06/19 00:46:58;;;;;;;8.27;5.65;;;;;;;23.09;49.74;98997.72;341266;28;18092;-61
2023/06/19 00:47:12;;;;;;;6.20;5.57;;;;;;;23.01;50.14;98994.94;340909;28;17572;-61
2023/06/19 00:47:25;;;;;;;6.57;5.53;;;;;;;22.93;50.08;98984.22;340429;28;19199;-62
2023/06/19 00:47:37;;;;;;;8.40;5.75;;;;;;;;;;340829;28;10657;-60
2023/06/19 00:47:50;;;;;;;8.38;5.70;;;;;;;22.89;50.32;98981.03;342000;28;5220;-62
2023/06/19 00:48:04;;;;;;;7.60;5.73;;;;;;;22.77;50.81;98978.72;340537;28;11120;-60
2023/06/19 00:48:17;;;;;;;7.68;5.90;;;;;;;22.76;50.64;98980.53;344074;28;4662;-61
2023/06/19 00:48:31;;;;;;;7.28;5.72;;;;;;;22.74;51.15;98978.03;340375;28;18212;-62
2023/06/19 00:48:43;;;;;;;6.82;5.40;;;;;;;22.80;50.62;98979.25;340208;28;18053;-60
2023/06/19 00:48:55;;;;;;;7.13;5.50;;;;;;;22.78;50.60;98986.53;342566;28;4619;-61
2023/06/19 00:49:08;;;;;;;7.45;5.65;;;;;;;22.80;50.75;98989.00;342341;28;11619;-60
2023/06/19 00:49:20;;;;;;;6.78;5.60;;;;;;;22.82;50.88;98990.56;342451;28;18188;-62
2023/06/19 00:49:33;;;;;;;6.32;5.50;;;;;;;22.85;50.53;98994.72;341001;28;11183;-61
2023/06/19 00:49:45;;;;;;;6.18;5.57;;;;;;;22.86;50.89;99001.72;344328;28;4852;-61
2023/06/19 00:49:57;;;;;;;6.10;5.50;;;;;;;22.83;51.09;99001.97;341797;28;4671;-61
2023/06/19 00:50:09;;;;;;;5.88;5.25;;;;;;;22.78;51.13;99001.56;340083;28;17885;-60
2023/06/19 00:50:22;;;;;;;6.07;5.35;;;;;;;22.77;50.97;99002.56;341495;28;4740;-61
2023/06/19 00:50:37;;;;;;;6.75;5.63;;;;;;;22.73;51.02;99002.84;340051;28;19188;-61
2023/06/19 00:50:50;;;;;;;6.65;5.57;;;;;;;22.70;51.20;99003.13;340737;28;4810;-61
2023/06/19 00:51:02;;;;;;;6.85;5.55;;;;;;;22.70;51.51;98999.66;343201;28;4739;-62
2023/06/19 00:51:14;;;;;;;6.82;5.50;;;;;;;22.64;51.60;98995.75;340901;28;18396;-61
2023/06/19 00:51:26;;;;;;;7.03;5.80;;;;;;;22.65;51.52;98992.13;344552;28;4631;-61
2023/06/19 00:51:38;;;;;;;6.32;5.63;;;;;;;22.66;51.66;98996.44;341939;28;8517;-58
2023/06/19 00:51:51;;;;;;;7.47;5.88;;;;;;;22.68;51.59;99005.09;341671;28;4632;-61
2023/06/19 00:52:04;;;;;;;7.55;5.80;;;;;;;22.70;51.63;99003.13;340116;28;19317;-59
2023/06/19 00:52:16;;;;;;;6.35;5.50;;;;;;;22.71;51.29;99009.25;342924;28;5445;-62
2023/06/19 00:52:28;;;;;;;6.28;5.53;;;;;;;22.73;51.48;99002.84;339622;28;12333;-60
2023/06/19 00:52:40;;;;;;;6.85;5.63;;;;;;;22.74;51.39;99009.81;342403;28;5859;-61
2023/06/19 00:52:52;;;;;;;7.43;5.82;;;;;;;22.75;51.56;99013.28;342504;28;4680;-61
2023/06/19 00:53:04;;;;;;;8.80;5.82;;;;;;;22.77;51.06;99007.84;341525;28;17516;-59
2023/06/19 00:53:19;;;;;;;8.10;5.85;;;;;;;22.76;51.48;99008.81;343019;28;4651;-59
2023/06/19 00:53:32;;;;;;;6.13;5.53;;;;;;;22.74;50.94;99012.47;340682;28;17920;-59
2023/06/19 00:53:45;;;;;;;6.60;5.38;;;;;;;22.74;51.04;99009.81;339763;28;18294;-62
2023/06/19 00:53:57;;;;;;;8.77;5.70;;;;;;;22.73;51.15;99007.31;341426;28;5601;-62
2023/06/19 00:54:09;;;;;;;8.48;5.55;;;;;;;22.73;51.21;99009.94;339356;28;4693;-62
2023/06/19 00:54:21;;;;;;;6.03;5.40;;;;;;;22.69;51.50;99005.91;343070;28;4700;-61
2023/06/19 00:54:34;;;;;;;6.32;5.32;;;;;;;22.68;51.31;99010.38;339853;28;18073;-61
2023/06/19 00:54:46;;;;;;;6.63;5.38;;;;;;;22.69;51.66;99012.03;342032;28;4585;-62
2023/06/19 00:54:58;;;;;;;6.30;5.53;;;;;;;22.70;51.52;99003.13;342350;28;5180;-60
2023/06/19 00:55:11;;;;;;;6.25;5.63;;;;;;;22.70;51.50;99003.13;340414;28;19010;-62
2023/06/19 00:55:28;;;;;;;6.28;5.50;;;;;;;22.71;51.55;99002.13;343479;28;4611;-62
2023/06/19 00:55:40;;;;;;;7.25;5.70;;;;;;;22.61;52.22;99003.97;338881;28;17846;-62
2023/06/19 00:55:57;;;;;;;7.18;5.68;;;;;;;22.61;52.50;99000.50;342788;28;4669;-62
2023/06/19 00:56:09;;;;;;;6.47;5.75;;;;;;;22.54;52.41;98998.44;340257;28;18540;-62
2023/06/19 00:56:21;;;;;;;8.32;5.82;;;;;;;22.58;52.57;98998.13;341956;28;4521;-60
2023/06/19 00:56:35;;;;;;;8.82;5.90;;;;;;;22.60;52.30;99004.16;340327;28;5440;-61
2023/06/19 00:56:48;;;;;;;7.97;5.70;;;;;;;22.55;53.29;98999.25;343209;28;5363;-62
2023/06/19 00:57:00;;;;;;;8.18;5.75;;;;;;;22.56;52.42;99006.25;340676;28;18116;-62
2023/06/19 00:57:12;;;;;;;7.22;5.78;;;;;;;22.56;52.62;99015.97;342641;28;5248;-63
2023/06/19 00:57:24;;;;;;;7.30;5.82;;;;;;;22.53;52.27;99006.50;338058;28;17886;-63
2023/06/19 00:57:37;;;;;;;6.40;5.70;;;;;;;22.56;52.52;99010.69;342809;28;4861;-61
2023/06/19 00:57:52;;;;;;;6.07;5.47;;;;;;;22.57;52.29;99007.88;339509;28;19344;-59
2023/06/19 00:58:05;;;;;;;6.68;5.50;;;;;;;22.61;52.34;99009.28;338997;28;17960;-64
2023/06/19 00:58:18;;;;;;;8.18;5.65;;;;;;;22.63;51.89;99017.91;341828;28;5150;-62
2023/06/19 00:58:31;;;;;;;8.02;5.60;;;;;;;22.63;51.89;99017.91;341036;28;18482;-60
2023/06/19 00:58:44;;;;;;;6.95;5.53;;;;;;;22.64;51.67;99009.00;344087;28;11457;-59
2023/06/19 00:58:56;;;;;;;7.00;5.47;;;;;;;22.67;51.76;99013.19;340370;28;17983;-61
2023/06/19 00:59:20;;;;;;;8.10;5.68;;;;;;;22.65;51.75;99015.13;341281;28;4678;-60
2023/06/19 00:59:32;;;;;;;6.18;5.43;;;;;;;22.67;51.52;99018.47;342890;28;17332;-62
2023/06/19 00:59:44;;;;;;;6.68;5.07;;;;;;;22.65;51.37;99023.91;342036;28;18418;-63
2023/06/19 00:59:58;;;;;;;7.13;5.20;;;;;;;22.68;51.20;99010.38;342993;28;4678;-62
2023/06/19 01:00:12;;;;;;;7.90;5.40;;;;;;;22.71;51.07;99020.69;341281;28;17924;-63
2023/06/19 01:00:24;;;;;;;7.50;5.63;;;;;;;22.73;51.26;99013.44;340039;28;18143;-61
2023/06/19 01:00:36;;;;;;;7.22;5.75;;;;;;;22.74;51.20;99009.81;342277;28;4784;-57
2023/06/19 01:00:49;;;;;;;7.03;5.75;;;;;;;22.77;50.81;99023.75;339768;28;16199;-58
2023/06/19 01:01:20;;;;;;;9.25;5.32;;;;;;;22.75;50.94;99010.63;348991;23;18249;-76
2023/06/19 01:01:33;;;;;;;9.18;5.28;;;;;;;22.79;50.41;99021.78;340652;28;4505;-77